sensor_id;sensor_type;location;lat;lon;timestamp;pressure;altitude;pressure_sealevel;temperature;humidity
64211;BME280;50528;48.514;14.394;2023-01-30T00:00:02;94162.39;;;-2.73;76.99
64211;BME280;50528;48.514;14.394;2023-01-30T00:00:43;94159.90;;;-2.74;76.88
64211;BME280;50528;48.514;14.394;2023-01-30T00:01:29;94159.95;;;-2.83;77.16
64211;BME280;50528;48.514;14.394;2023-01-30T00:02:03;94160.09;;;-2.87;77.44
64211;BME280;50528;48.514;14.394;2023-01-30T00:02:37;94163.54;;;-2.86;77.56
64211;BME280;50528;48.514;14.394;2023-01-30T00:03:11;94160.70;;;-2.77;77.34
64211;BME280;50528;48.514;14.394;2023-01-30T00:03:44;94153.09;;;-2.73;77.19
64211;BME280;50528;48.514;14.394;2023-01-30T00:04:18;94152.47;;;-2.74;77.03
64211;BME280;50528;48.514;14.394;2023-01-30T00:04:52;94152.98;;;-2.78;77.26
64211;BME280;50528;48.514;14.394;2023-01-30T00:05:25;94154.64;;;-2.81;77.23
64211;BME280;50528;48.514;14.394;2023-01-30T00:05:59;94148.88;;;-2.82;77.38
64211;BME280;50528;48.514;14.394;2023-01-30T00:06:33;94134.95;;;-2.91;77.39
64211;BME280;50528;48.514;14.394;2023-01-30T00:07:07;94157.41;;;-2.75;77.41
64211;BME280;50528;48.514;14.394;2023-01-30T00:07:40;94151.09;;;-2.77;77.31
64211;BME280;50528;48.514;14.394;2023-01-30T00:08:14;94148.39;;;-2.77;77.31
64211;BME280;50528;48.514;14.394;2023-01-30T00:08:48;94144.75;;;-2.78;77.46
64211;BME280;50528;48.514;14.394;2023-01-30T00:09:22;94152.11;;;-2.77;77.56
64211;BME280;50528;48.514;14.394;2023-01-30T00:09:55;94149.45;;;-2.71;77.33
64211;BME280;50528;48.514;14.394;2023-01-30T00:10:29;94149.56;;;-2.72;77.32
64211;BME280;50528;48.514;14.394;2023-01-30T00:11:07;94148.00;;;-2.77;77.33
64211;BME280;50528;48.514;14.394;2023-01-30T00:11:42;94151.95;;;-2.75;77.28
64211;BME280;50528;48.514;14.394;2023-01-30T00:12:16;94154.27;;;-2.79;77.27
64211;BME280;50528;48.514;14.394;2023-01-30T00:12:50;94154.10;;;-2.79;77.34
64211;BME280;50528;48.514;14.394;2023-01-30T00:13:23;94145.63;;;-2.74;77.26
64211;BME280;50528;48.514;14.394;2023-01-30T00:13:57;94143.91;;;-2.62;77.03
64211;BME280;50528;48.514;14.394;2023-01-30T00:14:30;94151.13;;;-2.67;76.86
64211;BME280;50528;48.514;14.394;2023-01-30T00:15:05;94146.05;;;-2.73;77.09
64211;BME280;50528;48.514;14.394;2023-01-30T00:15:39;94148.00;;;-2.77;77.16
64211;BME280;50528;48.514;14.394;2023-01-30T00:16:13;94147.59;;;-2.78;77.34
64211;BME280;50528;48.514;14.394;2023-01-30T00:16:47;94147.99;;;-2.75;77.39
64211;BME280;50528;48.514;14.394;2023-01-30T00:17:20;94149.79;;;-2.72;77.22
64211;BME280;50528;48.514;14.394;2023-01-30T00:17:54;94149.33;;;-2.74;77.28
64211;BME280;50528;48.514;14.394;2023-01-30T00:18:28;94150.86;;;-2.60;76.87
64211;BME280;50528;48.514;14.394;2023-01-30T00:19:01;94154.59;;;-2.66;76.94
64211;BME280;50528;48.514;14.394;2023-01-30T00:19:35;94154.31;;;-2.68;76.91
64211;BME280;50528;48.514;14.394;2023-01-30T00:20:09;94148.52;;;-2.72;77.07
64211;BME280;50528;48.514;14.394;2023-01-30T00:20:43;94153.36;;;-2.74;77.12
64211;BME280;50528;48.514;14.394;2023-01-30T00:21:16;94149.42;;;-2.69;76.89
64211;BME280;50528;48.514;14.394;2023-01-30T00:21:50;94145.69;;;-2.76;77.15
64211;BME280;50528;48.514;14.394;2023-01-30T00:22:24;94144.47;;;-2.77;77.30
64211;BME280;50528;48.514;14.394;2023-01-30T00:22:57;94146.20;;;-2.78;77.36
64211;BME280;50528;48.514;14.394;2023-01-30T00:23:34;94147.46;;;-2.72;77.37
64211;BME280;50528;48.514;14.394;2023-01-30T00:24:09;94145.71;;;-2.63;76.89
64211;BME280;50528;48.514;14.394;2023-01-30T00:24:42;94142.20;;;-2.59;76.76
64211;BME280;50528;48.514;14.394;2023-01-30T00:25:16;94144.70;;;-2.63;76.73
64211;BME280;50528;48.514;14.394;2023-01-30T00:25:50;94144.02;;;-2.65;76.98
64211;BME280;50528;48.514;14.394;2023-01-30T00:26:25;94138.54;;;-2.71;76.83
64211;BME280;50528;48.514;14.394;2023-01-30T00:26:58;94141.21;;;-2.74;77.04
64211;BME280;50528;48.514;14.394;2023-01-30T00:27:32;94139.32;;;-2.79;77.21
64211;BME280;50528;48.514;14.394;2023-01-30T00:28:08;94142.44;;;-2.79;77.43
64211;BME280;50528;48.514;14.394;2023-01-30T00:28:41;94140.38;;;-2.79;77.47
64211;BME280;50528;48.514;14.394;2023-01-30T00:29:16;94145.67;;;-2.74;77.19
64211;BME280;50528;48.514;14.394;2023-01-30T00:30:08;94141.16;;;-2.67;76.79
64211;BME280;50528;48.514;14.394;2023-01-30T00:30:56;94135.66;;;-2.77;76.99
64211;BME280;50528;48.514;14.394;2023-01-30T00:31:30;94138.38;;;-2.80;77.03
64211;BME280;50528;48.514;14.394;2023-01-30T00:32:04;94139.90;;;-2.79;77.18
64211;BME280;50528;48.514;14.394;2023-01-30T00:32:38;94136.80;;;-2.78;77.19
64211;BME280;50528;48.514;14.394;2023-01-30T00:33:12;94140.34;;;-2.66;76.96
64211;BME280;50528;48.514;14.394;2023-01-30T00:33:45;94130.38;;;-2.59;76.56
64211;BME280;50528;48.514;14.394;2023-01-30T00:34:19;94130.65;;;-2.67;76.72
64211;BME280;50528;48.514;14.394;2023-01-30T00:34:53;94133.80;;;-2.69;76.86
64211;BME280;50528;48.514;14.394;2023-01-30T00:35:26;94132.56;;;-2.75;77.07
64211;BME280;50528;48.514;14.394;2023-01-30T00:36:03;94130.80;;;-2.79;77.03
64211;BME280;50528;48.514;14.394;2023-01-30T00:36:37;94130.30;;;-2.78;77.30
64211;BME280;50528;48.514;14.394;2023-01-30T00:37:11;94132.35;;;-2.76;77.25
64211;BME280;50528;48.514;14.394;2023-01-30T00:37:44;94126.31;;;-2.66;77.00
64211;BME280;50528;48.514;14.394;2023-01-30T00:38:20;94133.64;;;-2.64;76.89
64211;BME280;50528;48.514;14.394;2023-01-30T00:38:56;94128.13;;;-2.72;76.76
64211;BME280;50528;48.514;14.394;2023-01-30T00:39:30;94130.23;;;-2.77;77.08
64211;BME280;50528;48.514;14.394;2023-01-30T00:40:06;94132.54;;;-2.76;77.11
64211;BME280;50528;48.514;14.394;2023-01-30T00:40:40;94123.87;;;-2.66;76.84
64211;BME280;50528;48.514;14.394;2023-01-30T00:41:14;94124.31;;;-2.57;76.36
64211;BME280;50528;48.514;14.394;2023-01-30T00:41:49;94125.07;;;-2.64;76.36
64211;BME280;50528;48.514;14.394;2023-01-30T00:42:41;94123.66;;;-2.78;76.81
64211;BME280;50528;48.514;14.394;2023-01-30T00:43:34;94117.80;;;-2.85;77.14
64211;BME280;50528;48.514;14.394;2023-01-30T00:44:26;94124.55;;;-2.90;77.32
64211;BME280;50528;48.514;14.394;2023-01-30T00:45:19;94109.80;;;-2.96;77.48
64211;BME280;50528;48.514;14.394;2023-01-30T00:46:39;94117.79;;;-2.97;77.65
64211;BME280;50528;48.514;14.394;2023-01-30T00:47:31;94119.52;;;-3.03;77.97
64211;BME280;50528;48.514;14.394;2023-01-30T00:48:05;94113.56;;;-3.00;77.82
64211;BME280;50528;48.514;14.394;2023-01-30T00:48:38;94113.27;;;-3.03;77.84
64211;BME280;50528;48.514;14.394;2023-01-30T00:49:12;94110.44;;;-2.95;77.70
64211;BME280;50528;48.514;14.394;2023-01-30T00:49:46;94113.31;;;-2.98;77.49
64211;BME280;50528;48.514;14.394;2023-01-30T00:50:24;94112.10;;;-2.96;77.62
64211;BME280;50528;48.514;14.394;2023-01-30T00:50:58;94107.14;;;-2.96;77.75
64211;BME280;50528;48.514;14.394;2023-01-30T00:51:32;94108.95;;;-2.97;77.69
64211;BME280;50528;48.514;14.394;2023-01-30T00:52:05;94107.33;;;-3.03;77.79
64211;BME280;50528;48.514;14.394;2023-01-30T00:52:39;94104.50;;;-2.97;77.89
64211;BME280;50528;48.514;14.394;2023-01-30T00:53:14;94103.86;;;-2.93;77.64
64211;BME280;50528;48.514;14.394;2023-01-30T00:53:48;94094.38;;;-2.92;77.70
64211;BME280;50528;48.514;14.394;2023-01-30T00:54:22;94103.01;;;-2.91;77.71
64211;BME280;50528;48.514;14.394;2023-01-30T00:54:56;94098.86;;;-2.89;77.65
64211;BME280;50528;48.514;14.394;2023-01-30T00:55:30;94096.80;;;-2.94;77.78
64211;BME280;50528;48.514;14.394;2023-01-30T00:56:04;94094.35;;;-2.94;77.89
64211;BME280;50528;48.514;14.394;2023-01-30T00:56:38;94090.11;;;-2.92;77.68
64211;BME280;50528;48.514;14.394;2023-01-30T00:57:11;94097.25;;;-2.83;77.54
64211;BME280;50528;48.514;14.394;2023-01-30T00:57:45;94096.42;;;-2.85;77.61
64211;BME280;50528;48.514;14.394;2023-01-30T00:58:19;94097.60;;;-2.87;77.72
64211;BME280;50528;48.514;14.394;2023-01-30T00:58:53;94094.35;;;-2.89;77.58
64211;BME280;50528;48.514;14.394;2023-01-30T00:59:27;94097.17;;;-2.93;77.92
64211;BME280;50528;48.514;14.394;2023-01-30T01:00:00;94095.48;;;-2.91;77.90
64211;BME280;50528;48.514;14.394;2023-01-30T01:00:35;94084.48;;;-2.98;77.78
64211;BME280;50528;48.514;14.394;2023-01-30T01:01:08;94089.99;;;-2.91;77.69
64211;BME280;50528;48.514;14.394;2023-01-30T01:01:42;94089.22;;;-2.89;77.88
64211;BME280;50528;48.514;14.394;2023-01-30T01:02:16;94093.71;;;-2.91;77.59
64211;BME280;50528;48.514;14.394;2023-01-30T01:02:50;94089.44;;;-2.89;77.73
64211;BME280;50528;48.514;14.394;2023-01-30T01:03:23;94088.13;;;-2.88;77.69
64211;BME280;50528;48.514;14.394;2023-01-30T01:03:57;94082.14;;;-2.88;77.59
64211;BME280;50528;48.514;14.394;2023-01-30T01:04:31;94091.34;;;-2.84;77.82
64211;BME280;50528;48.514;14.394;2023-01-30T01:05:16;94084.88;;;-2.85;77.55
64211;BME280;50528;48.514;14.394;2023-01-30T01:05:51;94078.46;;;-2.94;77.54
64211;BME280;50528;48.514;14.394;2023-01-30T01:06:24;94088.08;;;-2.88;77.67
64211;BME280;50528;48.514;14.394;2023-01-30T01:07:05;94085.45;;;-2.89;77.75
64211;BME280;50528;48.514;14.394;2023-01-30T01:07:53;94080.95;;;-2.92;77.74
64211;BME280;50528;48.514;14.394;2023-01-30T01:08:28;94076.20;;;-3.00;77.69
64211;BME280;50528;48.514;14.394;2023-01-30T01:09:03;94082.42;;;-2.86;77.53
64211;BME280;50528;48.514;14.394;2023-01-30T01:09:44;94074.42;;;-2.88;77.55
64211;BME280;50528;48.514;14.394;2023-01-30T01:10:21;94087.00;;;-2.89;77.64
64211;BME280;50528;48.514;14.394;2023-01-30T01:10:55;94082.73;;;-2.77;77.25
64211;BME280;50528;48.514;14.394;2023-01-30T01:11:30;94084.59;;;-2.85;77.30
64211;BME280;50528;48.514;14.394;2023-01-30T01:12:04;94085.45;;;-2.92;77.55
64211;BME280;50528;48.514;14.394;2023-01-30T01:12:38;94081.66;;;-2.90;77.63
64211;BME280;50528;48.514;14.394;2023-01-30T01:13:13;94088.15;;;-2.92;77.59
64211;BME280;50528;48.514;14.394;2023-01-30T01:13:46;94083.08;;;-2.92;77.60
64211;BME280;50528;48.514;14.394;2023-01-30T01:14:20;94078.16;;;-2.94;77.77
64211;BME280;50528;48.514;14.394;2023-01-30T01:14:54;94080.75;;;-2.93;77.77
64211;BME280;50528;48.514;14.394;2023-01-30T01:15:28;94083.23;;;-2.94;77.85
64211;BME280;50528;48.514;14.394;2023-01-30T01:16:01;94078.92;;;-2.91;77.93
64211;BME280;50528;48.514;14.394;2023-01-30T01:16:38;94079.33;;;-2.89;77.87
64211;BME280;50528;48.514;14.394;2023-01-30T01:17:11;94081.96;;;-2.85;77.44
64211;BME280;50528;48.514;14.394;2023-01-30T01:17:46;94078.45;;;-2.79;77.36
64211;BME280;50528;48.514;14.394;2023-01-30T01:18:19;94080.64;;;-2.83;77.61
64211;BME280;50528;48.514;14.394;2023-01-30T01:18:53;94081.12;;;-2.78;77.45
64211;BME280;50528;48.514;14.394;2023-01-30T01:19:27;94077.36;;;-2.79;77.21
64211;BME280;50528;48.514;14.394;2023-01-30T01:20:00;94078.29;;;-2.82;77.50
64211;BME280;50528;48.514;14.394;2023-01-30T01:20:35;94081.19;;;-2.82;77.28
64211;BME280;50528;48.514;14.394;2023-01-30T01:21:09;94077.55;;;-2.82;77.57
64211;BME280;50528;48.514;14.394;2023-01-30T01:21:43;94080.61;;;-2.83;77.36
64211;BME280;50528;48.514;14.394;2023-01-30T01:22:16;94076.58;;;-2.87;77.63
64211;BME280;50528;48.514;14.394;2023-01-30T01:22:55;94078.51;;;-2.88;77.60
64211;BME280;50528;48.514;14.394;2023-01-30T01:23:29;94077.98;;;-2.89;77.64
64211;BME280;50528;48.514;14.394;2023-01-30T01:24:02;94077.04;;;-2.89;77.83
64211;BME280;50528;48.514;14.394;2023-01-30T01:24:38;94069.25;;;-2.88;77.57
64211;BME280;50528;48.514;14.394;2023-01-30T01:25:13;94079.48;;;-2.91;77.63
64211;BME280;50528;48.514;14.394;2023-01-30T01:25:47;94075.14;;;-2.90;77.77
64211;BME280;50528;48.514;14.394;2023-01-30T01:26:21;94073.10;;;-2.87;77.66
64211;BME280;50528;48.514;14.394;2023-01-30T01:26:55;94074.11;;;-2.85;77.49
64211;BME280;50528;48.514;14.394;2023-01-30T01:27:28;94069.13;;;-2.86;77.64
64211;BME280;50528;48.514;14.394;2023-01-30T01:28:02;94065.11;;;-2.86;77.57
64211;BME280;50528;48.514;14.394;2023-01-30T01:28:36;94061.15;;;-2.89;77.68
64211;BME280;50528;48.514;14.394;2023-01-30T01:29:15;94061.15;;;-2.86;77.74
64211;BME280;50528;48.514;14.394;2023-01-30T01:29:48;94063.31;;;-2.90;77.66
64211;BME280;50528;48.514;14.394;2023-01-30T01:30:22;94064.55;;;-2.92;77.76
64211;BME280;50528;48.514;14.394;2023-01-30T01:30:56;94057.21;;;-2.91;77.80
64211;BME280;50528;48.514;14.394;2023-01-30T01:31:32;94040.52;;;-2.96;77.67
64211;BME280;50528;48.514;14.394;2023-01-30T01:32:07;94050.64;;;-2.92;77.85
64211;BME280;50528;48.514;14.394;2023-01-30T01:32:41;94050.50;;;-2.89;77.79
64211;BME280;50528;48.514;14.394;2023-01-30T01:33:15;94040.10;;;-2.88;77.81
64211;BME280;50528;48.514;14.394;2023-01-30T01:33:49;94039.43;;;-2.84;77.81
64211;BME280;50528;48.514;14.394;2023-01-30T01:34:23;94039.33;;;-2.91;77.78
64211;BME280;50528;48.514;14.394;2023-01-30T01:34:56;94032.58;;;-2.92;77.92
64211;BME280;50528;48.514;14.394;2023-01-30T01:35:30;94029.85;;;-2.90;77.92
64211;BME280;50528;48.514;14.394;2023-01-30T01:36:05;94030.41;;;-2.80;77.57
64211;BME280;50528;48.514;14.394;2023-01-30T01:36:39;94022.09;;;-2.81;77.63
64211;BME280;50528;48.514;14.394;2023-01-30T01:37:28;94025.08;;;-2.82;77.66
64211;BME280;50528;48.514;14.394;2023-01-30T01:38:02;94018.29;;;-2.67;77.24
64211;BME280;50528;48.514;14.394;2023-01-30T01:38:36;94020.50;;;-2.58;76.71
64211;BME280;50528;48.514;14.394;2023-01-30T01:39:15;94023.12;;;-2.62;76.69
64211;BME280;50528;48.514;14.394;2023-01-30T01:39:48;94021.13;;;-2.63;76.70
64211;BME280;50528;48.514;14.394;2023-01-30T01:40:44;94021.45;;;-2.82;77.13
64211;BME280;50528;48.514;14.394;2023-01-30T01:41:37;94016.83;;;-2.90;77.33
64211;BME280;50528;48.514;14.394;2023-01-30T01:42:10;94013.28;;;-2.94;77.59
64211;BME280;50528;48.514;14.394;2023-01-30T01:42:44;94012.65;;;-2.96;77.54
64211;BME280;50528;48.514;14.394;2023-01-30T01:43:20;94012.64;;;-2.99;77.67
64211;BME280;50528;48.514;14.394;2023-01-30T01:44:08;94011.08;;;-3.00;77.82
64211;BME280;50528;48.514;14.394;2023-01-30T01:45:15;94013.36;;;-2.98;78.07
64211;BME280;50528;48.514;14.394;2023-01-30T01:46:08;94018.50;;;-2.94;77.90
64211;BME280;50528;48.514;14.394;2023-01-30T01:46:54;94012.26;;;-2.92;77.61
64211;BME280;50528;48.514;14.394;2023-01-30T01:47:30;94024.80;;;-2.94;77.61
64211;BME280;50528;48.514;14.394;2023-01-30T01:48:12;94023.70;;;-2.98;77.73
64211;BME280;50528;48.514;14.394;2023-01-30T01:48:53;94029.85;;;-3.01;77.90
64211;BME280;50528;48.514;14.394;2023-01-30T01:49:30;94026.21;;;-3.03;78.03
64211;BME280;50528;48.514;14.394;2023-01-30T01:50:10;94027.99;;;-3.00;78.13
64211;BME280;50528;48.514;14.394;2023-01-30T01:50:56;94031.84;;;-2.96;77.86
64211;BME280;50528;48.514;14.394;2023-01-30T01:51:35;94025.55;;;-2.96;78.05
64211;BME280;50528;48.514;14.394;2023-01-30T01:52:12;94025.58;;;-2.97;77.91
64211;BME280;50528;48.514;14.394;2023-01-30T01:52:48;94023.77;;;-2.97;78.00
64211;BME280;50528;48.514;14.394;2023-01-30T01:53:31;94030.90;;;-2.97;78.03
64211;BME280;50528;48.514;14.394;2023-01-30T01:54:13;94024.27;;;-2.97;77.91
64211;BME280;50528;48.514;14.394;2023-01-30T01:54:53;94026.23;;;-2.96;78.13
64211;BME280;50528;48.514;14.394;2023-01-30T01:55:28;94021.27;;;-2.90;77.85
64211;BME280;50528;48.514;14.394;2023-01-30T01:56:06;94021.10;;;-2.90;77.65
64211;BME280;50528;48.514;14.394;2023-01-30T01:56:42;94016.11;;;-2.95;77.77
64211;BME280;50528;48.514;14.394;2023-01-30T01:57:26;94014.42;;;-2.86;77.69
64211;BME280;50528;48.514;14.394;2023-01-30T01:58:30;94000.92;;;-2.93;77.38
64211;BME280;50528;48.514;14.394;2023-01-30T01:59:35;94012.95;;;-2.99;77.97
64211;BME280;50528;48.514;14.394;2023-01-30T02:00:45;94015.45;;;-2.90;77.53
64211;BME280;50528;48.514;14.394;2023-01-30T02:01:20;94012.33;;;-2.96;77.61
64211;BME280;50528;48.514;14.394;2023-01-30T02:01:57;94014.15;;;-3.00;77.80
64211;BME280;50528;48.514;14.394;2023-01-30T02:02:33;94013.40;;;-3.00;77.87
64211;BME280;50528;48.514;14.394;2023-01-30T02:03:13;94017.40;;;-2.96;77.91
64211;BME280;50528;48.514;14.394;2023-01-30T02:03:53;94021.52;;;-2.92;77.56
64211;BME280;50528;48.514;14.394;2023-01-30T02:04:30;94020.79;;;-2.95;77.68
64211;BME280;50528;48.514;14.394;2023-01-30T02:05:28;94011.77;;;-3.04;77.56
64211;BME280;50528;48.514;14.394;2023-01-30T02:06:03;94016.54;;;-3.00;77.90
64211;BME280;50528;48.514;14.394;2023-01-30T02:06:40;94018.05;;;-2.98;77.82
64211;BME280;50528;48.514;14.394;2023-01-30T02:07:17;94021.55;;;-3.01;77.87
64211;BME280;50528;48.514;14.394;2023-01-30T02:07:59;94015.99;;;-2.97;77.67
64211;BME280;50528;48.514;14.394;2023-01-30T02:08:39;94018.95;;;-2.94;77.78
64211;BME280;50528;48.514;14.394;2023-01-30T02:09:13;94015.19;;;-2.97;77.67
64211;BME280;50528;48.514;14.394;2023-01-30T02:09:48;94020.88;;;-2.91;77.54
64211;BME280;50528;48.514;14.394;2023-01-30T02:10:28;94014.61;;;-2.92;77.55
64211;BME280;50528;48.514;14.394;2023-01-30T02:12:04;94013.27;;;-2.95;77.67
64211;BME280;50528;48.514;14.394;2023-01-30T02:12:39;94012.30;;;-2.97;77.76
64211;BME280;50528;48.514;14.394;2023-01-30T02:13:14;94015.14;;;-3.00;77.71
64211;BME280;50528;48.514;14.394;2023-01-30T02:13:48;94006.02;;;-3.00;77.67
64211;BME280;50528;48.514;14.394;2023-01-30T02:14:26;94011.75;;;-3.02;77.72
64211;BME280;50528;48.514;14.394;2023-01-30T02:15:01;94003.61;;;-3.01;78.03
64211;BME280;50528;48.514;14.394;2023-01-30T02:15:38;94005.73;;;-2.97;77.76
64211;BME280;50528;48.514;14.394;2023-01-30T02:16:12;94004.61;;;-2.96;77.74
64211;BME280;50528;48.514;14.394;2023-01-30T02:16:46;94007.15;;;-2.96;77.68
64211;BME280;50528;48.514;14.394;2023-01-30T02:17:20;94009.72;;;-3.00;77.82
64211;BME280;50528;48.514;14.394;2023-01-30T02:17:53;94006.45;;;-2.97;77.79
64211;BME280;50528;48.514;14.394;2023-01-30T02:18:29;94003.25;;;-3.01;77.77
64211;BME280;50528;48.514;14.394;2023-01-30T02:19:21;94010.16;;;-2.98;77.92
64211;BME280;50528;48.514;14.394;2023-01-30T02:19:59;94008.66;;;-2.99;77.84
64211;BME280;50528;48.514;14.394;2023-01-30T02:31:04;93995.41;;;-3.14;78.31
64211;BME280;50528;48.514;14.394;2023-01-30T02:32:42;93984.39;;;-3.08;78.30
64211;BME280;50528;48.514;14.394;2023-01-30T02:35:44;93983.67;;;-3.13;78.36
64211;BME280;50528;48.514;14.394;2023-01-30T02:36:28;93990.14;;;-3.15;78.34
64211;BME280;50528;48.514;14.394;2023-01-30T02:37:26;93990.05;;;-3.12;78.46
64211;BME280;50528;48.514;14.394;2023-01-30T02:44:02;93993.14;;;-3.03;78.08
64211;BME280;50528;48.514;14.394;2023-01-30T02:44:51;93992.71;;;-3.10;78.31
64211;BME280;50528;48.514;14.394;2023-01-30T02:45:41;93994.88;;;-3.14;78.52
64211;BME280;50528;48.514;14.394;2023-01-30T02:46:28;93994.90;;;-3.16;78.61
64211;BME280;50528;48.514;14.394;2023-01-30T02:47:50;93994.61;;;-3.12;78.31
64211;BME280;50528;48.514;14.394;2023-01-30T02:48:37;93994.30;;;-3.12;78.42
64211;BME280;50528;48.514;14.394;2023-01-30T02:50:46;93984.39;;;-3.12;78.28
64211;BME280;50528;48.514;14.394;2023-01-30T02:51:28;93986.39;;;-3.15;78.31
64211;BME280;50528;48.514;14.394;2023-01-30T02:52:04;93986.13;;;-3.17;78.24
64211;BME280;50528;48.514;14.394;2023-01-30T02:52:39;93979.17;;;-3.17;78.36
64211;BME280;50528;48.514;14.394;2023-01-30T02:53:14;93980.83;;;-3.19;78.24
64211;BME280;50528;48.514;14.394;2023-01-30T02:53:49;93983.66;;;-3.15;78.58
64211;BME280;50528;48.514;14.394;2023-01-30T02:54:23;93981.52;;;-3.10;78.12
64211;BME280;50528;48.514;14.394;2023-01-30T02:54:57;93981.51;;;-3.09;78.26
64211;BME280;50528;48.514;14.394;2023-01-30T02:55:30;93983.73;;;-3.12;78.26
64211;BME280;50528;48.514;14.394;2023-01-30T02:56:04;93981.95;;;-3.09;78.42
64211;BME280;50528;48.514;14.394;2023-01-30T02:56:52;93978.84;;;-3.08;78.14
64211;BME280;50528;48.514;14.394;2023-01-30T02:57:27;93977.73;;;-3.14;78.49
64211;BME280;50528;48.514;14.394;2023-01-30T02:58:04;93975.14;;;-3.06;78.21
64211;BME280;50528;48.514;14.394;2023-01-30T02:59:01;93975.81;;;-3.01;78.01
64211;BME280;50528;48.514;14.394;2023-01-30T02:59:41;93972.70;;;-3.13;77.98
64211;BME280;50528;48.514;14.394;2023-01-30T03:04:16;93980.31;;;-3.09;78.09
64211;BME280;50528;48.514;14.394;2023-01-30T03:05:20;93970.94;;;-3.24;78.33
64211;BME280;50528;48.514;14.394;2023-01-30T03:09:33;93964.64;;;-3.23;78.51
64211;BME280;50528;48.514;14.394;2023-01-30T03:10:25;93953.99;;;-3.24;78.29
64211;BME280;50528;48.514;14.394;2023-01-30T03:11:09;93956.98;;;-3.28;78.48
64211;BME280;50528;48.514;14.394;2023-01-30T03:13:18;93950.38;;;-3.26;78.25
64211;BME280;50528;48.514;14.394;2023-01-30T03:14:06;93942.79;;;-3.34;78.36
64211;BME280;50528;48.514;14.394;2023-01-30T03:15:00;93949.64;;;-3.24;78.40
64211;BME280;50528;48.514;14.394;2023-01-30T03:15:40;93943.98;;;-3.32;78.28
64211;BME280;50528;48.514;14.394;2023-01-30T03:16:21;93947.95;;;-3.33;78.36
64211;BME280;50528;48.514;14.394;2023-01-30T03:16:58;93942.81;;;-3.32;78.53
64211;BME280;50528;48.514;14.394;2023-01-30T03:17:33;93957.98;;;-3.26;78.41
64211;BME280;50528;48.514;14.394;2023-01-30T03:18:08;93952.26;;;-3.27;78.34
64211;BME280;50528;48.514;14.394;2023-01-30T03:18:43;93958.82;;;-3.30;78.35
64211;BME280;50528;48.514;14.394;2023-01-30T03:19:20;93958.67;;;-3.33;78.50
64211;BME280;50528;48.514;14.394;2023-01-30T03:19:54;93955.47;;;-3.37;78.61
64211;BME280;50528;48.514;14.394;2023-01-30T03:20:36;93966.27;;;-3.35;78.68
64211;BME280;50528;48.514;14.394;2023-01-30T03:21:11;93968.77;;;-3.33;78.69
64211;BME280;50528;48.514;14.394;2023-01-30T03:21:45;93956.64;;;-3.33;78.61
64211;BME280;50528;48.514;14.394;2023-01-30T03:22:19;93966.14;;;-3.26;78.51
64211;BME280;50528;48.514;14.394;2023-01-30T03:22:53;93960.52;;;-3.16;78.19
64211;BME280;50528;48.514;14.394;2023-01-30T03:23:27;93952.63;;;-3.26;78.11
64211;BME280;50528;48.514;14.394;2023-01-30T03:24:01;93964.66;;;-3.22;78.31
64211;BME280;50528;48.514;14.394;2023-01-30T03:24:35;93962.16;;;-3.19;78.20
64211;BME280;50528;48.514;14.394;2023-01-30T03:25:11;93964.37;;;-3.17;77.94
64211;BME280;50528;48.514;14.394;2023-01-30T03:25:47;93964.98;;;-3.21;78.07
64211;BME280;50528;48.514;14.394;2023-01-30T03:26:24;93969.13;;;-3.09;77.76
64211;BME280;50528;48.514;14.394;2023-01-30T03:27:05;93968.72;;;-3.14;77.67
64211;BME280;50528;48.514;14.394;2023-01-30T03:27:41;93968.74;;;-3.21;77.81
64211;BME280;50528;48.514;14.394;2023-01-30T03:28:17;93967.82;;;-3.25;77.87
64211;BME280;50528;48.514;14.394;2023-01-30T03:28:52;93965.25;;;-3.24;78.04
64211;BME280;50528;48.514;14.394;2023-01-30T03:29:26;93959.30;;;-3.24;78.12
64211;BME280;50528;48.514;14.394;2023-01-30T03:29:59;93966.83;;;-3.23;78.20
64211;BME280;50528;48.514;14.394;2023-01-30T03:30:33;93964.09;;;-3.12;77.81
64211;BME280;50528;48.514;14.394;2023-01-30T03:31:13;93969.45;;;-3.18;77.84
64211;BME280;50528;48.514;14.394;2023-01-30T03:31:48;93968.69;;;-3.17;77.95
64211;BME280;50528;48.514;14.394;2023-01-30T03:32:21;93967.30;;;-3.17;78.08
64211;BME280;50528;48.514;14.394;2023-01-30T03:32:55;93968.20;;;-3.19;78.02
64211;BME280;50528;48.514;14.394;2023-01-30T03:33:28;93970.89;;;-3.16;77.98
64211;BME280;50528;48.514;14.394;2023-01-30T03:34:04;93970.96;;;-3.08;77.83
64211;BME280;50528;48.514;14.394;2023-01-30T03:34:38;93966.11;;;-3.17;77.91
64211;BME280;50528;48.514;14.394;2023-01-30T03:35:11;93961.55;;;-3.18;77.98
64211;BME280;50528;48.514;14.394;2023-01-30T03:35:45;93961.25;;;-3.17;78.06
64211;BME280;50528;48.514;14.394;2023-01-30T03:36:19;93962.61;;;-3.12;77.81
64211;BME280;50528;48.514;14.394;2023-01-30T03:36:53;93961.58;;;-3.12;77.82
64211;BME280;50528;48.514;14.394;2023-01-30T03:37:27;93961.80;;;-3.16;77.87
64211;BME280;50528;48.514;14.394;2023-01-30T03:38:01;93957.67;;;-3.12;77.97
64211;BME280;50528;48.514;14.394;2023-01-30T03:38:35;93954.29;;;-3.18;77.95
64211;BME280;50528;48.514;14.394;2023-01-30T03:39:09;93948.17;;;-3.15;78.10
64211;BME280;50528;48.514;14.394;2023-01-30T03:39:43;93950.11;;;-3.15;78.04
64211;BME280;50528;48.514;14.394;2023-01-30T03:40:20;93955.05;;;-3.15;78.16
64211;BME280;50528;48.514;14.394;2023-01-30T03:40:54;93952.14;;;-3.18;78.22
64211;BME280;50528;48.514;14.394;2023-01-30T03:41:28;93952.17;;;-3.19;78.25
64211;BME280;50528;48.514;14.394;2023-01-30T03:42:02;93947.21;;;-3.16;78.21
64211;BME280;50528;48.514;14.394;2023-01-30T03:42:36;93943.98;;;-3.19;78.49
64211;BME280;50528;48.514;14.394;2023-01-30T03:43:09;93947.80;;;-3.10;78.06
64211;BME280;50528;48.514;14.394;2023-01-30T03:43:43;93948.70;;;-3.09;77.89
64211;BME280;50528;48.514;14.394;2023-01-30T03:44:16;93951.16;;;-3.11;77.94
64211;BME280;50528;48.514;14.394;2023-01-30T03:44:50;93953.92;;;-3.09;77.95
64211;BME280;50528;48.514;14.394;2023-01-30T03:45:24;93949.92;;;-3.12;78.02
64211;BME280;50528;48.514;14.394;2023-01-30T03:45:57;93953.07;;;-3.14;78.12
64211;BME280;50528;48.514;14.394;2023-01-30T03:46:31;93955.29;;;-3.12;78.34